Time;durP1;ratioP1;P1;durP2;ratioP2;P2;SDS_P1;SDS_P2;PMS_P1;PMS_P2;Temp;Humidity;BMP_temperature;BMP_pressure;BME280_temperature;BME280_humidity;BME280_pressure;Samples;Min_cycle;Max_cycle;Signal;HPM_P1;HPM_P2
2021/04/01 00:00:48;;;;;;;5.00;2.25;;;21.10;53.00;;;;;;5086871;28;20035;-52
2021/04/01 00:03:15;;;;;;;3.25;1.90;;;21.10;52.70;;;;;;5082870;28;20535;-48
2021/04/01 00:05:41;;;;;;;5.20;2.25;;;21.10;52.60;;;;;;5085635;28;20062;-55
2021/04/01 00:08:06;;;;;;;4.50;2.00;;;21.10;52.60;;;;;;5084358;28;20061;-51
2021/04/01 00:10:40;;;;;;;3.78;2.17;;;21.10;52.60;;;;;;5084233;28;20029;-55
2021/04/01 00:13:06;;;;;;;4.28;1.95;;;21.10;52.50;;;;;;5085196;28;20024;-53
2021/04/01 00:15:37;;;;;;;3.53;1.65;;;21.10;52.50;;;;;;5081712;28;20041;-55
2021/04/01 00:18:05;;;;;;;4.78;2.05;;;21.10;52.60;;;;;;5084955;28;20032;-56
2021/04/01 00:20:30;;;;;;;2.92;1.92;;;21.00;52.40;;;;;;5083889;28;20061;-56
2021/04/01 00:22:56;;;;;;;5.22;3.15;;;21.00;52.40;;;;;;5081016;28;20041;-51
2021/04/01 00:25:23;;;;;;;4.47;2.22;;;21.00;52.30;;;;;;5081674;28;20028;-51
2021/04/01 00:27:48;;;;;;;3.28;2.13;;;21.10;52.30;;;;;;5083665;28;20036;-54
2021/04/01 00:30:15;;;;;;;3.53;1.73;;;21.00;52.20;;;;;;5082633;28;20020;-50
2021/04/01 00:32:40;;;;;;;5.25;2.15;;;21.10;52.20;;;;;;5080004;28;20024;-54
2021/04/01 00:35:07;;;;;;;4.38;2.08;;;21.10;52.10;;;;;;5082851;28;20377;-52
2021/04/01 00:37:33;;;;;;;4.35;2.08;;;21.00;52.00;;;;;;5083585;28;21353;-49
2021/04/01 00:39:59;;;;;;;3.92;1.95;;;21.00;52.00;;;;;;5083248;28;20088;-50
2021/04/01 00:42:25;;;;;;;3.67;2.38;;;21.00;52.00;;;;;;5084252;28;20111;-51
2021/04/01 00:44:51;;;;;;;2.83;1.70;;;21.00;51.90;;;;;;5080813;28;20028;-55
2021/04/01 00:47:16;;;;;;;3.88;2.00;;;21.00;51.80;;;;;;5083759;28;20031;-54
2021/04/01 00:49:42;;;;;;;6.20;2.38;;;21.10;51.80;;;;;;5081931;28;20115;-53
2021/04/01 00:52:09;;;;;;;3.22;1.77;;;21.00;51.70;;;;;;5084972;28;20035;-49
2021/04/01 00:54:36;;;;;;;4.65;2.03;;;21.00;51.70;;;;;;5082273;28;20022;-54
2021/04/01 00:57:02;;;;;;;4.55;2.35;;;21.00;51.70;;;;;;5079990;28;20136;-51
2021/04/01 00:59:28;;;;;;;2.95;1.65;;;21.00;51.50;;;;;;5083725;28;20032;-51
2021/04/01 01:02:04;;;;;;;4.68;2.17;;;21.00;51.60;;;;;;5084217;28;20024;-53
2021/04/01 01:04:31;;;;;;;4.25;2.00;;;21.00;51.50;;;;;;5083767;28;20028;-49
2021/04/01 01:06:57;;;;;;;3.63;2.00;;;21.00;51.40;;;;;;5080671;28;20020;-56
2021/04/01 01:09:23;;;;;;;5.93;2.10;;;21.10;51.30;;;;;;5082986;28;20020;-55
2021/04/01 01:11:48;;;;;;;3.38;2.05;;;21.10;51.20;;;;;;5083518;28;20102;-49
2021/04/01 01:14:15;;;;;;;5.28;2.13;;;21.10;51.00;;;;;;5081385;28;20599;-53
2021/04/01 01:16:41;;;;;;;3.20;1.90;;;21.10;50.90;;;;;;5083484;28;20032;-56
2021/04/01 01:19:08;;;;;;;2.95;1.90;;;21.10;50.80;;;;;;5083424;28;20046;-51
2021/04/01 01:21:34;;;;;;;3.90;2.63;;;21.10;50.80;;;;;;5081008;28;20032;-53
2021/04/01 01:24:01;;;;;;;4.65;2.03;;;21.10;50.70;;;;;;5079322;28;20078;-51
2021/04/01 01:26:27;;;;;;;3.60;2.25;;;21.20;50.70;;;;;;5085094;28;20069;-54
2021/04/01 01:28:53;;;;;;;6.03;2.60;;;21.10;50.70;;;;;;5082361;28;21333;-55
2021/04/01 01:31:20;;;;;;;6.00;1.60;;;21.10;50.60;;;;;;5082824;28;20086;-56
2021/04/01 01:33:47;;;;;;;4.60;2.70;;;21.10;50.60;;;;;;5085202;28;20020;-53
2021/04/01 01:36:13;;;;;;;3.92;1.95;;;21.10;50.60;;;;;;5082864;28;20039;-54
2021/04/01 01:38:40;;;;;;;4.00;2.20;;;21.10;50.60;;;;;;5080250;28;20028;-55
2021/04/01 01:41:06;;;;;;;4.68;2.20;;;21.10;50.60;;;;;;5079231;28;20485;-52
2021/04/01 01:43:34;;;;;;;3.05;1.90;;;21.10;50.40;;;;;;5080739;28;20028;-53
2021/04/01 01:46:00;;;;;;;2.63;1.67;;;21.10;50.50;;;;;;5081549;28;20591;-54
2021/04/01 01:48:25;;;;;;;6.03;1.67;;;21.10;50.40;;;;;;5081587;28;20028;-53
2021/04/01 01:50:51;;;;;;;2.28;1.63;;;21.10;50.30;;;;;;5088253;28;20107;-50
2021/04/01 01:53:17;;;;;;;4.43;2.05;;;21.00;50.20;;;;;;5073453;28;20031;-53
2021/04/01 01:55:43;;;;;;;2.67;1.67;;;21.10;50.20;;;;;;5078110;28;20031;-54
2021/04/01 01:58:10;;;;;;;3.08;2.10;;;21.10;50.20;;;;;;5090360;28;20044;-56
2021/04/01 02:00:44;;;;;;;4.95;1.98;;;21.10;50.20;;;;;;5092670;28;20481;-54
2021/04/01 02:03:12;;;;;;;2.85;1.55;;;21.00;50.10;;;;;;5083844;28;20033;-55
2021/04/01 02:05:39;;;;;;;3.53;2.00;;;21.00;50.00;;;;;;5083703;28;20024;-54
2021/04/01 02:08:07;;;;;;;3.03;1.85;;;21.10;50.00;;;;;;5091378;28;20047;-54
2021/04/01 02:10:34;;;;;;;3.92;2.28;;;21.10;50.00;;;;;;5074570;28;20040;-53
2021/04/01 02:13:00;;;;;;;3.75;1.90;;;21.10;50.00;;;;;;5089403;28;20216;-54
2021/04/01 02:15:32;;;;;;;5.28;1.92;;;21.10;50.00;;;;;;5090428;28;20024;-55
2021/04/01 02:18:06;;;;;;;3.55;1.90;;;21.00;49.90;;;;;;5091167;28;20040;-52
2021/04/01 02:20:39;;;;;;;3.38;1.98;;;21.00;49.90;;;;;;5090670;28;20072;-52
2021/04/01 02:23:05;;;;;;;4.82;1.90;;;21.00;49.80;;;;;;5090127;28;20028;-54
2021/04/01 02:25:31;;;;;;;4.13;2.05;;;21.00;49.70;;;;;;5084557;28;20021;-50
2021/04/01 02:27:57;;;;;;;4.35;2.10;;;21.00;49.70;;;;;;5087572;28;20112;-56
2021/04/01 02:30:23;;;;;;;4.63;1.77;;;21.00;49.70;;;;;;5091607;28;20020;-53
2021/04/01 02:32:48;;;;;;;3.10;1.65;;;21.00;49.70;;;;;;5089669;28;20051;-50
2021/04/01 02:35:14;;;;;;;5.90;2.00;;;21.00;49.70;;;;;;5072693;28;20507;-52
2021/04/01 02:37:40;;;;;;;2.45;1.90;;;21.00;49.60;;;;;;5071754;28;20473;-53
2021/04/01 02:40:06;;;;;;;3.38;1.70;;;20.90;49.60;;;;;;5072204;28;20078;-50
2021/04/01 02:42:31;;;;;;;3.78;2.25;;;21.00;49.60;;;;;;5071507;28;20634;-47
2021/04/01 02:44:57;;;;;;;2.95;1.92;;;21.00;49.50;;;;;;5072246;28;20029;-49
2021/04/01 02:47:22;;;;;;;4.32;1.60;;;21.00;49.50;;;;;;5090308;28;20055;-52
2021/04/01 02:49:48;;;;;;;3.25;2.20;;;21.00;49.50;;;;;;5090386;28;20024;-55
2021/04/01 02:52:14;;;;;;;2.30;2.00;;;21.00;49.40;;;;;;5085001;28;20033;-51
2021/04/01 02:54:39;;;;;;;3.40;2.00;;;21.00;49.40;;;;;;5071401;28;20028;-49
2021/04/01 02:57:18;;;;;;;2.58;2.10;;;21.00;49.30;;;;;;5082854;28;20044;-52
2021/04/01 02:59:45;;;;;;;3.75;1.85;;;21.00;49.30;;;;;;5089345;28;20496;-56
2021/04/01 03:02:12;;;;;;;3.65;2.05;;;21.00;49.30;;;;;;5078395;28;20067;-53
2021/04/01 03:04:38;;;;;;;3.67;2.38;;;21.00;49.60;;;;;;5078042;28;20020;-55
2021/04/01 03:07:05;;;;;;;2.83;1.95;;;21.00;49.30;;;;;;5090066;28;20032;-51
2021/04/01 03:09:31;;;;;;;4.90;1.95;;;21.00;49.20;;;;;;5089100;28;20106;-52
2021/04/01 03:11:57;;;;;;;3.83;1.55;;;21.00;49.20;;;;;;5082297;28;20458;-53
2021/04/01 03:14:22;;;;;;;6.32;1.90;;;21.00;49.20;;;;;;5074490;28;20040;-53
2021/04/01 03:16:48;;;;;;;4.78;2.47;;;21.00;49.10;;;;;;5087941;28;20043;-50
2021/04/01 03:19:13;;;;;;;2.55;1.88;;;21.00;49.10;;;;;;5087032;28;20032;-53
2021/04/01 03:21:39;;;;;;;2.95;1.90;;;21.00;49.10;;;;;;5092275;28;20032;-52
2021/04/01 03:24:05;;;;;;;2.95;1.70;;;21.00;49.10;;;;;;5080167;28;20020;-52
2021/04/01 03:26:31;;;;;;;3.70;1.90;;;21.00;49.00;;;;;;5093984;28;20067;-55
2021/04/01 03:28:56;;;;;;;4.55;1.95;;;21.00;49.00;;;;;;5094719;28;20436;-51
2021/04/01 03:31:22;;;;;;;5.25;1.52;;;21.00;48.90;;;;;;5094569;28;20024;-49
2021/04/01 03:33:48;;;;;;;3.53;1.63;;;21.00;48.90;;;;;;5085033;28;20095;-55
2021/04/01 03:36:14;;;;;;;4.30;2.15;;;21.00;48.90;;;;;;5094866;28;20032;-52
2021/04/01 03:38:43;;;;;;;3.22;1.90;;;21.00;48.90;;;;;;5090988;28;20122;-53
2021/04/01 03:41:09;;;;;;;4.50;1.80;;;21.00;48.80;;;;;;5075699;28;20135;-51
2021/04/01 03:43:35;;;;;;;3.40;1.67;;;21.00;48.70;;;;;;5074814;28;20512;-52
2021/04/01 03:46:00;;;;;;;3.40;1.92;;;21.00;48.70;;;;;;5082731;28;20016;-53
2021/04/01 03:48:26;;;;;;;2.95;1.85;;;21.00;48.70;;;;;;5094579;28;20427;-53
2021/04/01 03:50:52;;;;;;;3.45;2.00;;;21.00;48.70;;;;;;5075852;28;20373;-52
2021/04/01 03:53:17;;;;;;;2.95;1.77;;;21.00;48.70;;;;;;5074067;28;20433;-54
2021/04/01 03:55:44;;;;;;;4.85;2.05;;;21.00;48.60;;;;;;5087008;28;20078;-50
2021/04/01 04:16:14;;;;;;;4.40;1.88;;;21.00;48.40;;;;;;5094188;28;20381;-52
2021/04/01 04:18:39;;;;;;;2.70;1.77;;;21.00;48.40;;;;;;5091882;28;20024;-54
2021/04/01 04:21:06;;;;;;;3.00;1.75;;;21.00;48.40;;;;;;5093583;28;20515;-51
2021/04/01 04:23:33;;;;;;;3.15;2.00;;;21.00;48.40;;;;;;5085271;28;20032;-51
2021/04/01 04:25:59;;;;;;;6.30;1.60;;;21.00;48.30;;;;;;5082918;28;20064;-52
2021/04/01 04:28:35;;;;;;;2.72;1.80;;;21.00;48.30;;;;;;5074287;28;20511;-50
2021/04/01 04:31:01;;;;;;;3.78;1.90;;;20.90;48.20;;;;;;5089332;28;20031;-56
2021/04/01 04:33:27;;;;;;;3.33;1.80;;;21.00;48.30;;;;;;5074018;28;20032;-53
2021/04/01 04:35:53;;;;;;;3.35;1.70;;;21.00;48.20;;;;;;5079146;28;20062;-54
2021/04/01 04:38:19;;;;;;;3.60;2.33;;;21.00;48.20;;;;;;5092726;28;20040;-52
2021/04/01 04:40:45;;;;;;;2.63;2.00;;;21.00;48.20;;;;;;5092859;28;20036;-53
2021/04/01 04:43:11;;;;;;;3.47;1.90;;;21.00;48.10;;;;;;5077608;28;20025;-54
2021/04/01 04:45:37;;;;;;;3.22;2.00;;;20.90;48.00;;;;;;5078540;28;20024;-51
2021/04/01 04:48:02;;;;;;;6.25;2.25;;;21.00;48.10;;;;;;5083125;28;20459;-49
2021/04/01 04:50:28;;;;;;;3.85;2.10;;;21.00;48.10;;;;;;5093494;28;20028;-46
2021/04/01 04:52:54;;;;;;;3.03;2.08;;;21.00;48.00;;;;;;5073632;28;20486;-50
2021/04/01 04:55:20;;;;;;;2.78;1.77;;;20.90;48.00;;;;;;5085422;28;20449;-53
2021/04/01 04:57:57;;;;;;;3.83;1.92;;;21.00;48.00;;;;;;5080690;28;20045;-56
2021/04/01 05:06:08;;;;;;;4.05;2.85;;;20.90;47.90;;;;;;5071537;28;20071;-53
2021/04/01 05:08:34;;;;;;;2.63;1.70;;;20.90;47.90;;;;;;5092778;28;20056;-54
2021/04/01 05:10:59;;;;;;;2.90;1.83;;;21.00;48.00;;;;;;5072322;28;20048;-49
2021/04/01 05:13:25;;;;;;;3.65;1.80;;;20.90;47.90;;;;;;5085710;28;20020;-52
2021/04/01 05:15:51;;;;;;;3.13;1.90;;;20.90;47.90;;;;;;5092090;28;20021;-50
2021/04/01 05:18:28;;;;;;;3.75;1.67;;;20.90;47.80;;;;;;5075519;28;20065;-48
2021/04/01 05:20:55;;;;;;;5.07;2.20;;;21.00;47.90;;;;;;5089411;28;20026;-51
2021/04/01 05:23:29;;;;;;;2.70;1.88;;;20.90;47.80;;;;;;5091339;28;20081;-53
2021/04/01 05:26:59;;;;;;;2.47;1.63;;;20.90;47.80;;;;;;5077049;28;20397;-52
2021/04/01 05:28:45;;;;;;;2.60;1.90;;;20.90;47.80;;;;;;5077698;28;20037;-54
2021/04/01 05:31:12;;;;;;;3.88;1.70;;;20.90;47.80;;;;;;5078684;28;20552;-52
2021/04/01 05:33:42;;;;;;;2.70;1.73;;;21.00;47.80;;;;;;5082064;28;20028;-53
2021/04/01 05:36:10;;;;;;;3.75;1.65;;;21.00;47.70;;;;;;5071775;28;20033;-49
2021/04/01 05:38:37;;;;;;;3.25;2.30;;;21.00;47.80;;;;;;5089540;28;20028;-55
2021/04/01 05:41:03;;;;;;;3.70;1.70;;;21.00;48.00;;;;;;5091703;28;20020;-51
2021/04/01 05:43:32;;;;;;;3.33;1.80;;;21.00;48.00;;;;;;5091720;28;20431;-54
2021/04/01 05:46:05;;;;;;;3.67;1.80;;;21.00;48.10;;;;;;5086139;28;20040;-49
2021/04/01 05:48:40;;;;;;;3.97;1.98;;;21.00;48.30;;;;;;5087210;28;20476;-52
2021/04/01 06:07:00;;;;;;;10.52;2.45;;;21.10;49.30;;;;;;5089461;28;20089;-52
2021/04/01 06:09:34;;;;;;;7.65;2.20;;;21.10;49.50;;;;;;5080443;28;20369;-50
2021/04/01 06:12:00;;;;;;;10.38;2.22;;;21.10;49.60;;;;;;5077662;28;20501;-50
2021/04/01 06:14:32;;;;;;;9.43;2.40;;;21.10;50.00;;;;;;5088032;28;20039;-52
2021/04/01 06:17:02;;;;;;;5.28;2.30;;;21.10;50.20;;;;;;5091242;28;20081;-54
2021/04/01 06:19:32;;;;;;;14.60;3.65;;;21.10;50.40;;;;;;5079589;28;20032;-49
2021/04/01 06:22:03;;;;;;;21.27;3.53;;;21.10;50.50;;;;;;5080592;28;20491;-48
2021/04/01 06:24:30;;;;;;;14.52;2.20;;;21.10;50.50;;;;;;5086252;28;20031;-59
2021/04/01 06:29:39;;;;;;;8.15;2.10;;;21.10;50.40;;;;;;5086046;28;20104;-50
2021/04/01 06:32:18;;;;;;;7.53;2.78;;;21.10;50.60;;;;;;5088360;28;20038;-48
2021/04/01 06:34:45;;;;;;;8.38;2.50;;;21.10;50.60;;;;;;5085755;28;20028;-51
2021/04/01 06:40:00;;;;;;;11.35;2.55;;;21.10;50.60;;;;;;5075576;28;20028;-53
2021/04/01 06:42:37;;;;;;;8.70;2.47;;;21.10;50.50;;;;;;5090950;28;20024;-46
2021/04/01 06:45:08;;;;;;;6.10;2.22;;;21.10;50.70;;;;;;5091194;28;20020;-47
2021/04/01 06:47:35;;;;;;;8.40;3.13;;;21.10;50.70;;;;;;5090028;28;20420;-49
2021/04/01 06:50:07;;;;;;;6.97;2.25;;;21.10;50.80;;;;;;5090393;28;20024;-52
2021/04/01 06:52:40;;;;;;;7.70;2.33;;;21.10;50.70;;;;;;5076721;28;20393;-49
2021/04/01 06:55:35;;;;;;;12.07;2.40;;;21.10;50.80;;;;;;5071051;28;20028;-52
2021/04/01 06:58:36;;;;;;;3.78;2.00;;;21.10;50.90;;;;;;5080579;28;20051;-51
2021/04/01 07:01:07;;;;;;;6.05;2.70;;;21.20;50.90;;;;;;5073906;28;20043;-53
2021/04/01 07:03:45;;;;;;;8.60;3.22;;;21.10;50.80;;;;;;5089839;28;20065;-52
2021/04/01 07:06:21;;;;;;;7.95;2.53;;;21.10;51.00;;;;;;5080959;28;20592;-55
2021/04/01 07:08:50;;;;;;;4.90;1.92;;;21.10;51.00;;;;;;5079840;28;20025;-47
2021/04/01 07:11:33;;;;;;;7.18;2.35;;;21.10;51.00;;;;;;5086758;28;20382;-48
2021/04/01 07:14:10;;;;;;;10.43;2.90;;;21.20;51.10;;;;;;5076604;28;20074;-44
2021/04/01 07:19:51;;;;;;;5.90;2.38;;;21.20;51.00;;;;;;5059024;28;20028;-53
2021/04/01 07:35:56;;;;;;;6.90;2.28;;;21.20;50.50;;;;;;5075482;28;20039;-53
2021/04/01 07:46:48;;;;;;;6.22;2.80;;;21.20;49.50;;;;;;5086367;28;20031;-49
2021/04/01 07:49:22;;;;;;;6.57;2.63;;;21.10;49.90;;;;;;5079264;28;20893;-46
2021/04/01 07:52:04;;;;;;;7.88;3.13;;;21.10;50.60;;;;;;5082090;28;20062;-51
2021/04/01 07:54:36;;;;;;;;;;;21.10;48.80;;;;;;5079461;28;20035;-47
2021/04/01 08:02:59;;;;;;;12.65;3.53;;;21.10;48.30;;;;;;5081729;28;20060;-52
2021/04/01 08:05:26;;;;;;;7.82;3.35;;;21.10;47.60;;;;;;5094475;28;20040;-48
2021/04/01 08:08:28;;;;;;;9.02;3.58;;;21.10;48.40;;;;;;5088026;28;20404;-53
2021/04/01 08:10:49;;;;;;;9.55;3.80;;;21.10;47.90;;;;;;5081741;28;20055;-50
2021/04/01 08:13:23;;;;;;;9.07;3.33;;;21.10;46.80;;;;;;5079521;28;20020;-49
2021/04/01 08:15:54;;;;;;;9.77;3.47;;;21.10;46.50;;;;;;5090975;28;20020;-52
2021/04/01 08:18:25;;;;;;;7.28;3.15;;;21.10;46.70;;;;;;5081091;28;20059;-49
2021/04/01 08:21:04;;;;;;;7.50;3.47;;;21.10;47.10;;;;;;5075487;28;20017;-55
2021/04/01 08:23:33;;;;;;;8.88;3.40;;;21.10;47.20;;;;;;5084130;28;20086;-50
2021/04/01 08:26:24;;;;;;;7.40;2.90;;;21.20;47.30;;;;;;5080164;28;20048;-49
2021/04/01 08:34:47;;;;;;;6.10;4.15;;;21.20;47.50;;;;;;5084314;28;20023;-55
2021/04/01 08:37:09;;;;;;;6.32;2.70;;;21.20;47.50;;;;;;5077817;28;20135;-47
2021/04/01 08:39:36;;;;;;;7.22;2.72;;;21.20;47.50;;;;;;5081752;28;20024;-45
2021/04/01 08:42:37;;;;;;;6.40;2.65;;;21.20;47.80;;;;;;5091250;28;20093;-50
2021/04/01 08:45:31;;;;;;;7.20;2.70;;;21.30;47.90;;;;;;5038662;28;20036;-46
2021/04/01 08:48:04;;;;;;;4.43;2.58;;;21.30;47.70;;;;;;5075244;28;20028;-50
2021/04/01 08:51:07;;;;;;;5.00;3.30;;;21.30;47.70;;;;;;5086477;28;20028;-49
2021/04/01 08:54:02;;;;;;;7.55;2.80;;;21.40;47.90;;;;;;5081857;28;20035;-52
2021/04/01 08:56:42;;;;;;;6.70;3.10;;;21.40;48.00;;;;;;5072449;28;20033;-48
2021/04/01 08:59:24;;;;;;;6.13;2.83;;;21.40;47.80;;;;;;5092773;28;20031;-46
2021/04/01 09:01:52;;;;;;;6.18;2.85;;;21.40;47.70;;;;;;5088642;28;20043;-49
2021/04/01 09:04:31;;;;;;;7.22;2.55;;;21.40;47.60;;;;;;5072912;28;20027;-46
2021/04/01 09:07:09;;;;;;;6.43;2.55;;;21.50;47.60;;;;;;5085626;28;20481;-51
2021/04/01 09:09:36;;;;;;;4.95;3.00;;;21.40;47.60;;;;;;5084121;28;20039;-49
2021/04/01 09:13:04;;;;;;;5.15;2.75;;;21.40;47.60;;;;;;5080428;28;20370;-47
2021/04/01 09:15:11;;;;;;;4.00;2.45;;;21.50;47.60;;;;;;5078334;28;20410;-52
2021/04/01 09:17:37;;;;;;;4.13;2.80;;;21.50;47.60;;;;;;5082068;28;20028;-45
2021/04/01 09:20:18;;;;;;;6.45;2.78;;;21.50;47.50;;;;;;5081246;28;20200;-52
2021/04/01 09:22:53;;;;;;;4.78;2.53;;;21.50;47.60;;;;;;5092483;28;20449;-49
2021/04/01 09:25:20;;;;;;;6.53;3.15;;;21.50;47.50;;;;;;5080873;28;20069;-51
2021/04/01 09:27:51;;;;;;;3.92;2.75;;;21.50;47.60;;;;;;5084857;28;20040;-50
2021/04/01 09:30:22;;;;;;;5.43;2.28;;;21.50;47.50;;;;;;5075838;28;20074;-49
2021/04/01 09:32:51;;;;;;;8.25;2.97;;;21.50;47.50;;;;;;5074041;28;20029;-50
2021/04/01 09:35:18;;;;;;;5.68;2.67;;;21.50;47.40;;;;;;5076246;28;20522;-50
2021/04/01 09:37:58;;;;;;;3.67;2.53;;;21.50;47.50;;;;;;5083601;28;20032;-52
2021/04/01 09:40:38;;;;;;;3.85;2.60;;;21.50;47.40;;;;;;5080941;28;20578;-48
2021/04/01 09:43:16;;;;;;;4.75;2.50;;;21.50;47.40;;;;;;5081800;28;20074;-47
2021/04/01 09:45:43;;;;;;;8.15;2.85;;;21.50;47.60;;;;;;5079449;28;20052;-50
2021/04/01 09:48:11;;;;;;;5.95;2.33;;;21.60;47.40;;;;;;5073647;28;20033;-49
2021/04/01 09:50:40;;;;;;;5.07;2.33;;;21.60;47.10;;;;;;5072905;28;20089;-45
2021/04/01 09:53:12;;;;;;;5.70;2.50;;;21.60;47.20;;;;;;5072008;28;20020;-46
2021/04/01 09:55:43;;;;;;;4.25;2.47;;;21.60;47.30;;;;;;5091010;28;20372;-50
2021/04/01 09:58:25;;;;;;;4.40;2.88;;;21.60;47.20;;;;;;5091415;28;20036;-49
2021/04/01 10:03:38;;;;;;;7.35;2.65;;;21.60;47.10;;;;;;5091861;28;20063;-48
2021/04/01 10:06:04;;;;;;;5.88;2.97;;;21.60;47.10;;;;;;5088869;28;20028;-51
2021/04/01 10:08:37;;;;;;;4.18;2.13;;;21.60;47.10;;;;;;5091843;28;20028;-48
2021/04/01 10:11:09;;;;;;;4.38;2.38;;;21.60;47.00;;;;;;5081538;28;20052;-45
2021/04/01 10:13:35;;;;;;;3.80;2.28;;;21.60;47.00;;;;;;5072301;28;20024;-46
2021/04/01 10:16:01;;;;;;;3.33;2.10;;;21.60;47.00;;;;;;5079222;28;20139;-45
2021/04/01 10:18:36;;;;;;;3.97;2.13;;;21.60;47.00;;;;;;5085696;28;20119;-48
2021/04/01 10:21:12;;;;;;;4.25;2.60;;;21.60;47.00;;;;;;5091065;28;20429;-47
2021/04/01 10:23:50;;;;;;;6.30;2.20;;;21.60;47.00;;;;;;5082140;28;20024;-49
2021/04/01 10:26:17;;;;;;;3.90;2.20;;;21.60;46.80;;;;;;5075964;28;20661;-56
2021/04/01 10:29:17;;;;;;;6.28;2.13;;;21.60;47.00;;;;;;5073321;28;20028;-55
2021/04/01 10:31:48;;;;;;;4.78;1.92;;;21.70;47.00;;;;;;5088783;28;20059;-55
2021/04/01 10:34:43;;;;;;;6.10;2.38;;;21.70;47.00;;;;;;5086401;28;20024;-59
2021/04/01 10:37:12;;;;;;;6.43;1.80;;;21.70;46.80;;;;;;5071321;28;20037;-58
2021/04/01 10:39:40;;;;;;;5.95;2.58;;;21.70;46.80;;;;;;5087079;28;20538;-50
2021/04/01 10:42:09;;;;;;;5.47;2.42;;;21.80;46.80;;;;;;5079429;28;20040;-47
2021/04/01 10:44:36;;;;;;;4.15;1.88;;;21.80;46.70;;;;;;5080991;28;20040;-48
2021/04/01 10:47:04;;;;;;;5.68;2.25;;;21.90;46.80;;;;;;5087804;28;20039;-56
2021/04/01 10:49:38;;;;;;;3.75;2.30;;;21.80;46.90;;;;;;5082945;28;20024;-48
2021/04/01 10:52:11;;;;;;;5.38;2.53;;;21.90;46.70;;;;;;5075226;28;20028;-50
2021/04/01 10:54:45;;;;;;;6.50;2.08;;;21.90;46.80;;;;;;5082145;28;20052;-49
2021/04/01 10:57:24;;;;;;;5.03;1.88;;;22.00;46.90;;;;;;5084723;28;20052;-46
2021/04/01 10:59:50;;;;;;;3.00;1.95;;;22.00;47.30;;;;;;5073692;28;20028;-50
2021/04/01 11:02:18;;;;;;;5.45;2.30;;;22.00;48.20;;;;;;5072098;28;20290;-48
2021/04/01 11:04:47;;;;;;;5.07;2.35;;;22.00;48.50;;;;;;5071840;28;20052;-51
2021/04/01 11:07:13;;;;;;;4.38;3.03;;;22.10;48.80;;;;;;5083952;28;20054;-52
2021/04/01 11:09:44;;;;;;;6.82;2.10;;;22.10;49.00;;;;;;5090517;28;20028;-48
2021/04/01 11:12:20;;;;;;;3.63;2.03;;;22.10;49.20;;;;;;5074069;28;20537;-53
2021/04/01 11:14:51;;;;;;;4.88;2.28;;;22.10;49.20;;;;;;5082700;28;20301;-57
2021/04/01 11:17:24;;;;;;;4.13;2.00;;;22.10;48.70;;;;;;5070931;28;20036;-46
2021/04/01 11:19:53;;;;;;;5.10;2.17;;;22.00;49.00;;;;;;5087200;28;20425;-49
2021/04/01 11:22:19;;;;;;;5.95;1.90;;;22.00;49.20;;;;;;5070916;28;20350;-44
2021/04/01 11:24:45;;;;;;;3.28;1.73;;;22.00;48.80;;;;;;5083682;28;20032;-45
2021/04/01 11:27:14;;;;;;;3.72;1.73;;;22.00;49.30;;;;;;5089307;28;20036;-45
2021/04/01 11:29:49;;;;;;;4.00;1.83;;;22.00;49.00;;;;;;5072552;28;20028;-49
2021/04/01 11:32:23;;;;;;;4.85;2.00;;;22.10;48.60;;;;;;5074118;28;20028;-45
2021/04/01 11:34:53;;;;;;;4.03;2.25;;;22.00;48.80;;;;;;5073772;28;20028;-45
2021/04/01 11:37:24;;;;;;;5.28;2.10;;;22.00;48.70;;;;;;5089944;28;20606;-45
2021/04/01 11:39:57;;;;;;;2.92;1.80;;;22.00;48.80;;;;;;5078188;28;20040;-45
2021/04/01 11:42:23;;;;;;;5.55;2.25;;;22.00;48.60;;;;;;5087694;28;20029;-44
2021/04/01 11:44:59;;;;;;;2.83;1.70;;;22.00;48.70;;;;;;5075301;28;20058;-48
2021/04/01 11:47:28;;;;;;;6.28;1.77;;;22.00;48.40;;;;;;5090291;28;20040;-45
2021/04/01 11:49:54;;;;;;;3.83;2.25;;;22.10;48.50;;;;;;5094600;28;20062;-45
2021/04/01 11:52:22;;;;;;;3.97;1.95;;;22.10;48.30;;;;;;5094213;28;20035;-45
2021/04/01 11:54:53;;;;;;;5.65;2.42;;;22.10;48.10;;;;;;5093187;28;20401;-45
2021/04/01 11:57:32;;;;;;;4.13;2.10;;;22.10;47.90;;;;;;5093201;28;20040;-51
2021/04/01 12:00:08;;;;;;;5.38;2.40;;;22.10;47.90;;;;;;5076049;28;20033;-47
2021/04/01 12:02:51;;;;;;;5.43;2.30;;;22.10;47.90;;;;;;5075098;28;20265;-45
2021/04/01 12:05:18;;;;;;;4.18;2.03;;;22.10;47.80;;;;;;5079793;28;20111;-44
2021/04/01 12:07:44;;;;;;;4.03;1.75;;;22.10;47.40;;;;;;5075685;28;20044;-45
2021/04/01 12:10:12;;;;;;;3.92;1.88;;;22.10;46.50;;;;;;5082345;28;20085;-44
2021/04/01 12:12:38;;;;;;;4.13;2.05;;;22.10;46.50;;;;;;5082873;28;20473;-45
2021/04/01 12:15:06;;;;;;;5.82;2.28;;;22.10;45.70;;;;;;5085308;28;20111;-46
2021/04/01 12:17:37;;;;;;;4.82;2.10;;;22.10;45.60;;;;;;5085439;28;20047;-46
2021/04/01 12:20:06;;;;;;;6.45;2.15;;;22.10;45.50;;;;;;5077707;28;20040;-47
2021/04/01 12:22:35;;;;;;;5.18;1.98;;;22.20;45.50;;;;;;5083271;28;20111;-49
2021/04/01 12:25:02;;;;;;;6.78;2.10;;;22.20;45.00;;;;;;5081265;28;20064;-52
2021/04/01 12:27:30;;;;;;;5.80;2.22;;;22.20;45.30;;;;;;5091977;28;20499;-50
2021/04/01 12:29:56;;;;;;;5.32;2.10;;;22.20;45.60;;;;;;5084995;28;20055;-45
2021/04/01 12:32:31;;;;;;;6.63;1.73;;;22.20;45.80;;;;;;5082999;28;20170;-46
2021/04/01 12:35:22;;;;;;;4.88;2.25;;;22.20;45.70;;;;;;5074109;28;20063;-47
2021/04/01 12:38:02;;;;;;;4.32;1.92;;;22.20;45.70;;;;;;5085679;28;20044;-50
2021/04/01 12:40:28;;;;;;;3.40;1.90;;;22.20;45.80;;;;;;5089878;28;20024;-48
2021/04/01 12:43:03;;;;;;;4.28;1.70;;;22.20;45.70;;;;;;5075565;28;20028;-48
2021/04/01 12:45:30;;;;;;;8.45;2.80;;;22.20;45.60;;;;;;5077014;28;20060;-46
2021/04/01 12:48:14;;;;;;;5.45;2.30;;;22.30;45.20;;;;;;5075338;28;20358;-50
2021/04/01 12:50:42;;;;;;;3.20;1.52;;;22.30;45.10;;;;;;5074158;28;20051;-48
2021/04/01 12:53:08;;;;;;;5.30;1.80;;;22.30;44.90;;;;;;5086538;28;20465;-47
2021/04/01 12:58:12;;;;;;;3.83;1.88;;;22.30;44.70;;;;;;5075831;28;20051;-47
2021/04/01 13:00:45;;;;;;;5.25;1.92;;;22.30;45.00;;;;;;5073870;28;20474;-48
2021/04/01 13:03:11;;;;;;;5.45;1.60;;;22.30;45.10;;;;;;5078293;28;20059;-47
2021/04/01 13:05:40;;;;;;;5.35;1.60;;;22.30;45.30;;;;;;5076683;28;20028;-49
2021/04/01 13:10:44;;;;;;;3.75;1.70;;;22.30;45.10;;;;;;5083786;28;20037;-48
2021/04/01 13:13:10;;;;;;;4.20;1.73;;;22.30;45.30;;;;;;5088267;28;20035;-51
2021/04/01 13:15:38;;;;;;;2.90;1.77;;;22.30;45.40;;;;;;5092858;28;20446;-50
2021/04/01 13:18:06;;;;;;;7.75;1.92;;;22.20;45.30;;;;;;5090623;28;20040;-54
2021/04/01 13:20:32;;;;;;;3.15;1.60;;;22.30;45.40;;;;;;5072826;28;20025;-50
2021/04/01 13:25:27;;;;;;;2.30;1.63;;;22.20;45.30;;;;;;5092824;28;20031;-46
2021/04/01 13:27:53;;;;;;;5.03;1.77;;;22.30;45.40;;;;;;5091664;28;20036;-46
2021/04/01 13:30:22;;;;;;;3.53;1.60;;;22.30;45.30;;;;;;5075851;28;20158;-47
2021/04/01 13:38:17;;;;;;;3.88;1.83;;;22.20;45.30;;;;;;5072312;28;20036;-51
2021/04/01 13:40:46;;;;;;;3.35;1.58;;;22.20;45.40;;;;;;5092550;28;20035;-47
2021/04/01 13:43:15;;;;;;;3.38;2.17;;;22.20;45.40;;;;;;5091796;28;20350;-47
2021/04/01 13:45:41;;;;;;;4.72;2.10;;;22.20;45.50;;;;;;5086763;28;20028;-47
2021/04/01 13:48:13;;;;;;;3.45;1.50;;;22.10;45.50;;;;;;5072122;28;20036;-46
2021/04/01 13:50:45;;;;;;;3.90;1.83;;;22.20;45.40;;;;;;5078993;28;20526;-47
2021/04/01 13:53:34;;;;;;;3.85;1.67;;;22.10;45.40;;;;;;5075676;28;20033;-51
2021/04/01 13:56:04;;;;;;;2.25;1.55;;;22.10;45.50;;;;;;5076244;28;20062;-46
2021/04/01 14:09:43;;;;;;;3.50;1.48;;;21.90;45.40;;;;;;5079499;28;20030;-47
2021/04/01 14:12:10;;;;;;;4.28;1.90;;;21.90;45.40;;;;;;5091041;28;20561;-46
2021/04/01 14:14:36;;;;;;;2.38;1.48;;;21.90;45.50;;;;;;5085999;28;20102;-46
2021/04/01 14:17:04;;;;;;;2.13;1.70;;;21.80;45.50;;;;;;5090601;28;20047;-52
2021/04/01 14:19:30;;;;;;;2.78;1.67;;;21.90;45.50;;;;;;5082560;28;20029;-46
2021/04/01 14:21:59;;;;;;;3.90;1.63;;;21.80;45.50;;;;;;5091776;28;20039;-47
2021/04/01 14:27:26;;;;;;;2.08;1.55;;;21.80;45.50;;;;;;5076458;28;20055;-47
2021/04/01 14:29:56;;;;;;;2.78;1.60;;;21.80;45.50;;;;;;5081300;28;20031;-48
2021/04/01 14:32:28;;;;;;;3.38;1.73;;;21.80;45.60;;;;;;5077896;28;20804;-47
2021/04/01 14:34:57;;;;;;;;;;;21.80;45.50;;;;;;5081808;28;20036;-51
2021/04/01 14:37:30;;;;;;;3.70;1.65;;;21.80;45.60;;;;;;5071185;28;20031;-48
2021/04/01 14:39:57;;;;;;;4.35;1.50;;;21.80;45.50;;;;;;5089080;28;20035;-48
2021/04/01 14:42:47;;;;;;;2.80;1.85;;;21.80;45.50;;;;;;5090921;28;20023;-47
2021/04/01 14:45:10;;;;;;;2.03;1.48;;;21.80;45.60;;;;;;5081209;28;20082;-47
2021/04/01 14:47:36;;;;;;;4.85;2.28;;;21.80;45.60;;;;;;5084963;28;20036;-47
2021/04/01 14:50:07;;;;;;;2.97;1.67;;;21.80;45.60;;;;;;5087954;28;20044;-49
2021/04/01 14:52:32;;;;;;;3.83;1.50;;;21.70;45.50;;;;;;5072214;28;20079;-46
2021/04/01 14:55:00;;;;;;;2.30;1.60;;;21.80;45.50;;;;;;5071770;28;20056;-48